Time;durP1;ratioP1;P1;durP2;ratioP2;P2;SDS_P1;SDS_P2;PMS_P1;PMS_P2;Temp;Humidity;BMP_temperature;BMP_pressure;BME280_temperature;BME280_humidity;BME280_pressure;Samples;Min_cycle;Max_cycle;Signal;HPM_P1;HPM_P2
2021/08/02 00:01:31;;;;;;;14.52;8.40;;;11.90;99.90;;;;;;5089963;28;20054;-87
2021/08/02 00:04:02;;;;;;;69.38;11.13;;;11.90;99.90;;;;;;5081278;28;20129;-89
2021/08/02 00:06:48;;;;;;;13.45;9.38;;;11.90;99.90;;;;;;5073478;28;20052;-88
2021/08/02 00:09:18;;;;;;;13.90;9.23;;;11.90;99.90;;;;;;5073390;28;20048;-87
2021/08/02 00:12:00;;;;;;;25.70;9.23;;;12.00;99.90;;;;;;5074288;28;20416;-88
2021/08/02 00:14:27;;;;;;;9.35;7.55;;;11.90;99.90;;;;;;5073210;28;20080;-88
2021/08/02 00:16:55;;;;;;;15.35;8.60;;;11.90;99.90;;;;;;5073202;28;20512;-87
2021/08/02 00:19:23;;;;;;;11.25;7.55;;;11.90;99.90;;;;;;5072917;28;20056;-87
2021/08/02 00:21:50;;;;;;;11.73;8.45;;;11.80;99.90;;;;;;5073040;28;20463;-87
2021/08/02 00:24:20;;;;;;;15.27;9.00;;;11.70;99.90;;;;;;5073981;28;20079;-88
2021/08/02 00:26:48;;;;;;;15.55;9.60;;;11.80;99.90;;;;;;5072853;28;20102;-86
2021/08/02 00:29:15;;;;;;;31.45;13.63;;;11.80;99.90;;;;;;5073497;28;20098;-87
2021/08/02 00:31:43;;;;;;;26.48;13.82;;;11.80;99.90;;;;;;5073942;28;20084;-87
2021/08/02 00:34:10;;;;;;;17.77;12.07;;;11.80;99.90;;;;;;5072971;28;20121;-87
2021/08/02 00:36:42;;;;;;;21.25;11.90;;;11.90;99.90;;;;;;5074107;28;20075;-87
2021/08/02 00:39:36;;;;;;;35.13;14.13;;;12.10;99.90;;;;;;5072893;28;20139;-87
2021/08/02 00:42:41;;;;;;;22.10;12.45;;;12.10;99.90;;;;;;5072789;28;20052;-87
2021/08/02 00:45:12;;;;;;;21.15;13.63;;;12.30;99.90;;;;;;5073987;28;20522;-87
2021/08/02 00:47:46;;;;;;;22.17;14.40;;;12.30;99.90;;;;;;5072750;28;20064;-88
2021/08/02 00:50:25;;;;;;;24.70;14.55;;;12.40;99.90;;;;;;5072775;28;20087;-88
2021/08/02 00:53:03;;;;;;;25.35;14.60;;;12.50;99.90;;;;;;5072729;28;20420;-88
2021/08/02 00:55:35;;;;;;;21.52;13.52;;;12.60;99.90;;;;;;5072660;28;20053;-87
2021/08/02 00:58:08;;;;;;;36.78;15.27;;;12.60;99.90;;;;;;5073403;28;20063;-88
2021/08/02 01:00:36;;;;;;;29.52;15.05;;;12.60;99.90;;;;;;5072726;28;20053;-88
2021/08/02 01:03:06;;;;;;;27.13;14.45;;;12.60;99.90;;;;;;5072300;28;20131;-88
2021/08/02 01:05:38;;;;;;;24.48;13.90;;;12.70;99.90;;;;;;5073582;28;20055;-87
2021/08/02 01:08:07;;;;;;;19.15;12.30;;;12.70;99.90;;;;;;5072386;28;20059;-87
2021/08/02 01:10:36;;;;;;;22.23;12.38;;;12.70;99.90;;;;;;5072015;28;20131;-87
2021/08/02 01:13:06;;;;;;;14.80;9.35;;;12.70;99.90;;;;;;5072933;28;20045;-86
2021/08/02 01:15:34;;;;;;;11.65;8.02;;;12.70;99.90;;;;;;5072392;28;20463;-87
2021/08/02 01:18:02;;;;;;;9.32;7.57;;;12.70;99.90;;;;;;5072457;28;20080;-87
2021/08/02 01:20:32;;;;;;;8.63;7.65;;;12.60;99.90;;;;;;5074794;28;20051;-87
2021/08/02 01:23:04;;;;;;;8.30;7.32;;;12.70;99.90;;;;;;5077947;28;20114;-87
2021/08/02 01:25:34;;;;;;;10.88;7.43;;;12.60;99.90;;;;;;5072142;28;20492;-87
2021/08/02 01:28:13;;;;;;;7.90;7.13;;;12.60;99.90;;;;;;5072283;28;20056;-87
2021/08/02 01:30:48;;;;;;;10.10;7.47;;;12.60;99.90;;;;;;5073112;28;20088;-87
2021/08/02 01:33:28;;;;;;;9.55;6.90;;;12.60;99.90;;;;;;5072383;28;20475;-87
2021/08/02 01:35:57;;;;;;;8.30;6.65;;;12.60;99.90;;;;;;5072834;28;20102;-87
2021/08/02 01:38:28;;;;;;;8.02;6.85;;;12.60;99.90;;;;;;5073128;28;20044;-87
2021/08/02 01:40:55;;;;;;;10.02;6.40;;;12.60;99.90;;;;;;5073100;28;20048;-87
2021/08/02 01:43:24;;;;;;;12.85;8.18;;;12.60;99.90;;;;;;5076707;28;20135;-87
2021/08/02 01:46:00;;;;;;;8.05;7.10;;;12.60;99.90;;;;;;5075806;28;20134;-87
2021/08/02 01:48:45;;;;;;;8.43;6.03;;;12.60;99.90;;;;;;5077177;28;20451;-87
2021/08/02 01:51:37;;;;;;;7.60;6.90;;;12.60;99.90;;;;;;5076021;28;20052;-87
2021/08/02 01:54:21;;;;;;;11.35;7.30;;;12.60;99.90;;;;;;5068255;28;20159;-87
2021/08/02 01:56:55;;;;;;;13.20;9.15;;;12.50;99.90;;;;;;5075804;28;20127;-87
2021/08/02 01:59:27;;;;;;;14.10;9.55;;;12.50;99.90;;;;;;5076290;28;20086;-87
2021/08/02 02:01:59;;;;;;;29.67;14.32;;;12.50;99.90;;;;;;5075777;28;20055;-87
2021/08/02 02:04:37;;;;;;;27.80;15.55;;;12.60;99.90;;;;;;5076871;28;20131;-87
2021/08/02 02:07:05;;;;;;;25.45;15.13;;;12.60;99.90;;;;;;5076769;28;20048;-87
2021/08/02 02:09:36;;;;;;;29.23;16.77;;;12.60;99.90;;;;;;5075682;28;20051;-87
2021/08/02 02:12:04;;;;;;;28.40;15.88;;;12.60;99.90;;;;;;5076803;28;20135;-87
2021/08/02 02:14:35;;;;;;;20.75;12.32;;;12.60;99.90;;;;;;5075796;28;20047;-87
2021/08/02 02:17:03;;;;;;;14.15;10.70;;;12.60;99.90;;;;;;5075625;28;20052;-87
2021/08/02 02:19:33;;;;;;;12.82;9.82;;;12.70;99.90;;;;;;5076207;28;20060;-87
2021/08/02 02:22:01;;;;;;;7.72;6.78;;;12.70;99.90;;;;;;5076025;28;20052;-86
2021/08/02 02:24:29;;;;;;;8.98;6.90;;;12.70;99.90;;;;;;5075422;28;20040;-87
2021/08/02 02:26:57;;;;;;;11.70;7.60;;;12.70;99.90;;;;;;5075411;28;20059;-87
2021/08/02 02:29:25;;;;;;;10.02;6.90;;;12.60;99.90;;;;;;5075604;28;20131;-87
2021/08/02 02:31:52;;;;;;;9.18;7.28;;;12.60;99.90;;;;;;5075134;28;20050;-87
2021/08/02 02:34:20;;;;;;;9.05;6.85;;;12.60;99.90;;;;;;5075039;28;20048;-87
2021/08/02 02:36:48;;;;;;;10.88;7.80;;;12.50;99.90;;;;;;5075051;28;20048;-87
2021/08/02 02:39:16;;;;;;;7.53;6.57;;;12.50;99.90;;;;;;5076512;28;20051;-88
2021/08/02 02:41:44;;;;;;;7.82;6.85;;;12.60;99.90;;;;;;5083134;28;20473;-87
2021/08/02 02:44:11;;;;;;;10.05;8.25;;;12.60;99.90;;;;;;5075981;28;20054;-87
2021/08/02 02:46:38;;;;;;;10.82;8.40;;;12.50;99.90;;;;;;5075884;28;20509;-87
2021/08/02 02:49:06;;;;;;;15.27;10.15;;;12.50;99.90;;;;;;5076396;28;20046;-87
2021/08/02 02:51:34;;;;;;;16.27;11.75;;;12.50;99.90;;;;;;5074520;28;20052;-87
2021/08/02 02:54:02;;;;;;;20.40;12.68;;;12.50;99.90;;;;;;5075268;28;20055;-87
2021/08/02 02:56:31;;;;;;;21.27;11.85;;;12.50;99.90;;;;;;5074947;28;20062;-87
2021/08/02 02:58:59;;;;;;;17.77;12.00;;;12.50;99.90;;;;;;5074538;28;20059;-86
2021/08/02 03:01:30;;;;;;;20.20;12.82;;;12.60;99.90;;;;;;5075965;28;20062;-87
2021/08/02 03:03:59;;;;;;;16.00;11.88;;;12.60;99.90;;;;;;5074892;28;20484;-86
2021/08/02 03:06:27;;;;;;;20.20;12.93;;;12.60;99.90;;;;;;5074754;28;20052;-86
2021/08/02 03:08:55;;;;;;;18.80;13.27;;;12.60;99.90;;;;;;5074520;28;20051;-87
2021/08/02 03:11:23;;;;;;;18.80;14.27;;;12.70;99.90;;;;;;5075156;28;20095;-87
2021/08/02 03:13:50;;;;;;;19.95;15.18;;;12.70;99.90;;;;;;5074584;28;20067;-87
2021/08/02 03:16:19;;;;;;;21.65;15.18;;;12.70;99.90;;;;;;5075534;28;20045;-87
2021/08/02 03:18:47;;;;;;;19.50;14.05;;;12.70;99.90;;;;;;5074183;28;20102;-87
2021/08/02 03:21:15;;;;;;;21.00;12.73;;;12.60;99.90;;;;;;5075718;28;20481;-87
2021/08/02 03:23:57;;;;;;;24.90;14.05;;;12.70;99.90;;;;;;5074286;28;20045;-87
2021/08/02 03:26:55;;;;;;;14.98;11.02;;;12.60;99.90;;;;;;5075491;28;20049;-86
2021/08/02 03:29:30;;;;;;;11.40;10.15;;;12.70;99.90;;;;;;5075210;28;20055;-86
2021/08/02 03:32:01;;;;;;;13.75;10.00;;;12.80;99.90;;;;;;5073804;28;20110;-87
2021/08/02 03:34:30;;;;;;;15.38;9.38;;;12.70;99.90;;;;;;5073715;28;20045;-87
2021/08/02 03:36:59;;;;;;;11.48;8.65;;;12.70;99.90;;;;;;5075262;28;20146;-87
2021/08/02 03:39:27;;;;;;;9.80;8.68;;;12.70;99.90;;;;;;5073839;28;20491;-86
2021/08/02 03:41:56;;;;;;;8.32;7.45;;;12.80;99.90;;;;;;5073939;28;20500;-87
2021/08/02 03:44:25;;;;;;;15.52;7.88;;;12.80;99.90;;;;;;5073707;28;20048;-87
2021/08/02 03:46:54;;;;;;;7.35;6.63;;;12.80;99.90;;;;;;5073484;28;20080;-87
2021/08/02 03:49:21;;;;;;;8.00;7.30;;;12.80;99.90;;;;;;5074587;28;20053;-87
2021/08/02 03:51:59;;;;;;;8.32;6.90;;;12.90;99.90;;;;;;5073803;28;20076;-86
2021/08/02 03:54:29;;;;;;;7.75;7.05;;;12.80;99.90;;;;;;5073831;28;20076;-87
2021/08/02 03:56:56;;;;;;;9.95;7.43;;;12.80;99.90;;;;;;5073804;28;20045;-87
2021/08/02 03:59:23;;;;;;;10.07;7.72;;;12.80;99.90;;;;;;5077516;28;20515;-87
2021/08/02 04:01:50;;;;;;;13.95;8.18;;;12.80;99.90;;;;;;5076077;28;20048;-87
2021/08/02 04:04:18;;;;;;;7.75;7.05;;;12.80;99.90;;;;;;5072697;28;20481;-87
2021/08/02 04:06:44;;;;;;;12.63;8.43;;;12.90;99.90;;;;;;5073343;28;20045;-87
2021/08/02 04:09:12;;;;;;;7.63;6.93;;;12.90;99.90;;;;;;5075099;28;20139;-87
2021/08/02 04:11:41;;;;;;;13.13;7.55;;;12.90;99.90;;;;;;5073183;28;20053;-87
2021/08/02 04:14:08;;;;;;;10.25;7.70;;;12.90;99.90;;;;;;5073938;28;20044;-87
2021/08/02 04:16:36;;;;;;;8.02;6.55;;;12.90;99.90;;;;;;5073089;28;20138;-87
2021/08/02 04:19:05;;;;;;;8.70;7.80;;;13.00;99.90;;;;;;5073203;28;20053;-86
2021/08/02 04:21:32;;;;;;;12.18;9.32;;;13.00;99.90;;;;;;5073197;28;20059;-87
2021/08/02 04:23:59;;;;;;;10.65;9.50;;;13.00;99.90;;;;;;5072968;28;20127;-87
2021/08/02 04:26:26;;;;;;;8.20;6.97;;;13.00;99.90;;;;;;5073651;28;20068;-87
2021/08/02 04:28:58;;;;;;;9.85;7.65;;;13.00;99.90;;;;;;5073992;28;20057;-87
2021/08/02 04:31:28;;;;;;;9.23;7.40;;;13.10;99.90;;;;;;5074037;28;20564;-87
2021/08/02 04:33:56;;;;;;;14.10;9.63;;;13.10;99.90;;;;;;5072679;28;20575;-87
2021/08/02 04:36:24;;;;;;;10.15;8.77;;;13.20;99.90;;;;;;5073213;28;20079;-87
2021/08/02 04:38:51;;;;;;;8.05;7.32;;;13.20;99.90;;;;;;5072836;28;20063;-87
2021/08/02 04:41:18;;;;;;;8.40;7.60;;;13.20;99.90;;;;;;5072792;28;20055;-87
2021/08/02 04:43:45;;;;;;;9.15;8.15;;;13.30;99.90;;;;;;5072829;28;20048;-87
2021/08/02 04:46:11;;;;;;;8.68;7.88;;;13.30;99.90;;;;;;5072435;28;20420;-87
2021/08/02 04:48:38;;;;;;;8.57;7.68;;;13.30;99.90;;;;;;5072751;28;20052;-87
2021/08/02 04:51:05;;;;;;;13.38;9.18;;;13.40;99.90;;;;;;5073535;28;20052;-87
2021/08/02 04:53:32;;;;;;;15.57;9.35;;;13.40;99.90;;;;;;5072340;28;20098;-87
2021/08/02 04:55:59;;;;;;;8.57;7.72;;;13.30;99.90;;;;;;5072615;28;20127;-87
2021/08/02 04:58:26;;;;;;;12.18;9.93;;;13.40;99.90;;;;;;5072679;28;20060;-87
2021/08/02 05:00:53;;;;;;;13.07;8.82;;;13.40;99.90;;;;;;5072530;28;20045;-87
2021/08/02 05:03:19;;;;;;;12.95;7.68;;;13.50;99.90;;;;;;5072728;28;20044;-87
2021/08/02 05:05:53;;;;;;;11.70;9.15;;;13.60;99.90;;;;;;5072162;28;20076;-87
2021/08/02 05:08:20;;;;;;;9.85;8.52;;;13.70;99.90;;;;;;5072492;28;20052;-87
2021/08/02 05:10:48;;;;;;;7.57;6.85;;;13.70;99.90;;;;;;5073317;28;20416;-87
2021/08/02 05:13:15;;;;;;;8.40;7.63;;;13.70;99.90;;;;;;5072830;28;20055;-87
2021/08/02 05:15:42;;;;;;;9.80;7.28;;;13.80;99.90;;;;;;5073510;28;20127;-86
2021/08/02 05:18:10;;;;;;;13.88;9.85;;;14.00;99.90;;;;;;5075756;28;20049;-87
2021/08/02 05:20:37;;;;;;;9.85;8.52;;;14.00;99.90;;;;;;5077215;28;20132;-88
2021/08/02 05:23:04;;;;;;;10.05;9.00;;;14.10;99.90;;;;;;5072519;28;20052;-88
2021/08/02 05:25:31;;;;;;;8.43;7.32;;;14.10;99.90;;;;;;5073413;28;20051;-87
2021/08/02 05:27:58;;;;;;;8.10;7.18;;;14.20;99.90;;;;;;5073348;28;20059;-87
2021/08/02 05:30:25;;;;;;;9.77;8.80;;;14.30;99.90;;;;;;5072078;28;20080;-88
2021/08/02 05:32:51;;;;;;;8.70;7.80;;;14.30;99.90;;;;;;5073050;28;20143;-87
2021/08/02 05:35:18;;;;;;;8.18;7.47;;;14.40;99.90;;;;;;5073073;28;20550;-87
2021/08/02 05:37:45;;;;;;;7.53;6.72;;;14.50;99.90;;;;;;5072198;28;20527;-87
2021/08/02 05:40:12;;;;;;;9.23;7.43;;;14.40;99.90;;;;;;5072131;28;20084;-88
2021/08/02 05:42:39;;;;;;;11.05;7.97;;;14.50;99.90;;;;;;5072975;28;20044;-87
2021/08/02 05:45:08;;;;;;;13.13;11.63;;;14.50;99.90;;;;;;5071937;28;20050;-87
2021/08/02 05:47:35;;;;;;;15.18;11.95;;;14.50;99.90;;;;;;5072212;28;20045;-87
2021/08/02 05:50:03;;;;;;;11.75;10.05;;;14.60;99.90;;;;;;5071930;28;20152;-87
2021/08/02 05:52:30;;;;;;;11.30;10.10;;;14.60;99.90;;;;;;5072125;28;20045;-87
2021/08/02 05:54:57;;;;;;;9.48;8.57;;;14.70;99.90;;;;;;5072187;28;20048;-87
2021/08/02 05:57:24;;;;;;;11.32;9.07;;;14.70;99.90;;;;;;5073038;28;20080;-87
2021/08/02 05:59:51;;;;;;;13.68;9.65;;;14.70;99.90;;;;;;5072869;28;20049;-87
2021/08/02 06:02:18;;;;;;;11.25;7.60;;;14.80;99.90;;;;;;5071779;28;20094;-87
2021/08/02 06:04:47;;;;;;;7.78;6.93;;;14.80;99.90;;;;;;5071792;28;20140;-86
2021/08/02 06:07:13;;;;;;;10.20;7.10;;;14.80;99.90;;;;;;5071921;28;20132;-87
2021/08/02 06:09:40;;;;;;;10.35;7.32;;;14.90;99.90;;;;;;5072818;28;20127;-87
2021/08/02 06:12:09;;;;;;;8.68;6.38;;;14.90;99.90;;;;;;5071881;28;20045;-87
2021/08/02 06:14:36;;;;;;;7.13;6.63;;;14.90;99.90;;;;;;5071540;28;20083;-87
2021/08/02 06:17:03;;;;;;;10.10;6.88;;;14.90;99.90;;;;;;5072822;28;20547;-87
2021/08/02 06:19:31;;;;;;;9.13;7.28;;;14.90;99.90;;;;;;5071863;28;20459;-87
2021/08/02 06:21:57;;;;;;;6.95;6.25;;;15.00;99.90;;;;;;5071780;28;20500;-87
2021/08/02 06:24:24;;;;;;;7.15;6.30;;;15.10;99.90;;;;;;5072785;28;20524;-87
2021/08/02 06:26:51;;;;;;;6.03;5.53;;;15.20;99.90;;;;;;5071981;28;20052;-87
2021/08/02 06:29:18;;;;;;;6.05;4.35;;;15.50;99.90;;;;;;5074721;28;20099;-87
2021/08/02 06:31:44;;;;;;;4.75;4.38;;;15.60;99.90;;;;;;5075066;28;20481;-86
2021/08/02 06:34:11;;;;;;;6.80;5.40;;;15.80;99.90;;;;;;5076752;28;20139;-87
2021/08/02 06:36:38;;;;;;;10.18;7.50;;;15.90;99.90;;;;;;5077253;28;20427;-88
2021/08/02 06:39:05;;;;;;;6.47;5.88;;;15.80;99.90;;;;;;5084000;28;20105;-87
2021/08/02 06:41:32;;;;;;;6.50;5.95;;;15.90;99.90;;;;;;5077001;28;20133;-87
2021/08/02 06:43:59;;;;;;;5.20;4.90;;;15.90;99.90;;;;;;5074800;28;20143;-86
2021/08/02 06:46:26;;;;;;;5.03;4.55;;;15.90;99.90;;;;;;5075146;28;20087;-86
2021/08/02 06:48:52;;;;;;;7.90;5.82;;;15.90;99.90;;;;;;5075097;28;20068;-87
2021/08/02 06:51:19;;;;;;;6.63;5.45;;;15.90;99.90;;;;;;5076327;28;20048;-86
2021/08/02 06:53:46;;;;;;;6.93;6.25;;;16.00;99.90;;;;;;5075942;28;20493;-87
2021/08/02 06:56:13;;;;;;;6.57;5.90;;;16.10;99.90;;;;;;5075713;28;20045;-87
2021/08/02 06:58:40;;;;;;;6.57;5.65;;;16.20;99.90;;;;;;5075609;28;20057;-87
2021/08/02 07:01:07;;;;;;;6.20;5.57;;;16.30;99.90;;;;;;5076085;28;20124;-86
2021/08/02 07:03:34;;;;;;;5.25;4.75;;;16.60;99.90;;;;;;5074666;28;20056;-87
2021/08/02 07:06:01;;;;;;;7.93;4.57;;;16.80;99.90;;;;;;5075348;28;20048;-86
2021/08/02 07:08:28;;;;;;;5.22;4.72;;;17.10;99.90;;;;;;5074788;28;20053;-86
2021/08/02 07:10:54;;;;;;;4.70;4.30;;;17.40;99.90;;;;;;5075524;28;20055;-87
2021/08/02 07:13:21;;;;;;;5.57;4.13;;;17.60;99.90;;;;;;5074725;28;20078;-88
2021/08/02 07:15:48;;;;;;;5.95;4.05;;;17.60;99.90;;;;;;5074245;28;20139;-86
2021/08/02 07:18:15;;;;;;;5.45;4.28;;;17.70;99.90;;;;;;5075309;28;20070;-86
2021/08/02 07:20:43;;;;;;;4.10;3.80;;;17.80;99.90;;;;;;5057927;28;20044;-86
2021/08/02 07:23:09;;;;;;;6.93;4.40;;;17.90;99.90;;;;;;5075345;28;20370;-86
2021/08/02 07:25:37;;;;;;;4.70;3.90;;;18.00;99.90;;;;;;5073797;28;20058;-86
2021/08/02 07:28:04;;;;;;;4.53;4.03;;;17.80;99.90;;;;;;5074103;28;20045;-86
2021/08/02 07:30:31;;;;;;;3.90;3.60;;;18.10;99.90;;;;;;5074728;28;20054;-85
2021/08/02 07:32:57;;;;;;;4.13;3.80;;;18.40;99.90;;;;;;5074740;28;20052;-86
2021/08/02 07:35:24;;;;;;;7.32;2.60;;;18.80;99.90;;;;;;5073859;28;20473;-85
2021/08/02 07:37:51;;;;;;;3.17;2.50;;;18.80;99.90;;;;;;5074672;28;20127;-86
2021/08/02 07:40:18;;;;;;;2.17;2.03;;;19.10;99.90;;;;;;5074076;28;20091;-86
2021/08/02 07:42:44;;;;;;;4.65;4.25;;;19.30;99.90;;;;;;5070842;28;20048;-85
2021/08/02 07:45:11;;;;;;;3.10;3.00;;;19.60;99.90;;;;;;5073646;28;20086;-86
2021/08/02 07:47:39;;;;;;;2.60;2.50;;;19.90;99.90;;;;;;5072657;28;20408;-86
2021/08/02 07:50:07;;;;;;;2.28;2.15;;;20.20;99.90;;;;;;5074015;28;20048;-86
2021/08/02 07:52:34;;;;;;;1.88;1.77;;;20.50;99.90;;;;;;5075013;28;20054;-86
2021/08/02 07:55:01;;;;;;;1.90;1.80;;;20.80;99.90;;;;;;5079848;28;20055;-86
2021/08/02 07:57:32;;;;;;;1.63;1.63;;;21.00;99.90;;;;;;5091663;28;20112;-86
2021/08/02 08:00:07;;;;;;;2.38;2.22;;;20.90;99.90;;;;;;5074359;28;20049;-85
2021/08/02 08:02:34;;;;;;;2.63;2.50;;;20.70;99.90;;;;;;5073232;28;20091;-86
2021/08/02 08:05:02;;;;;;;2.10;2.00;;;20.80;99.90;;;;;;5073868;28;20082;-86
2021/08/02 08:07:39;;;;;;;2.50;1.80;;;20.90;99.90;;;;;;5074197;28;20228;-86
2021/08/02 08:10:06;;;;;;;1.83;1.73;;;21.30;99.90;;;;;;5072685;28;20132;-86
2021/08/02 08:12:33;;;;;;;1.92;1.80;;;21.50;99.90;;;;;;5072795;28;20055;-87
2021/08/02 08:15:00;;;;;;;2.13;2.03;;;21.80;99.90;;;;;;5073132;28;20082;-87
2021/08/02 08:17:26;;;;;;;2.78;2.00;;;22.10;99.90;;;;;;5072701;28;20131;-87
2021/08/02 08:19:53;;;;;;;2.10;2.10;;;22.40;99.90;;;;;;5072336;28;20131;-86
2021/08/02 08:22:20;;;;;;;2.90;2.58;;;22.80;99.90;;;;;;5072616;28;20055;-86
2021/08/02 08:24:49;;;;;;;4.20;3.40;;;23.00;99.90;;;;;;5073619;28;20052;-86
2021/08/02 08:27:16;;;;;;;1.92;1.80;;;23.00;99.90;;;;;;5072992;28;20052;-87
2021/08/02 08:29:43;;;;;;;1.67;1.67;;;22.80;99.90;;;;;;5074025;28;20040;-87
2021/08/02 08:32:10;;;;;;;3.65;2.05;;;23.00;99.90;;;;;;5072805;28;20513;-87
2021/08/02 08:34:37;;;;;;;3.67;2.08;;;23.00;99.90;;;;;;5072713;28;20048;-88
2021/08/02 08:37:04;;;;;;;3.67;2.08;;;22.60;99.90;;;;;;5072684;28;20135;-87
2021/08/02 08:39:31;;;;;;;1.65;1.65;;;22.60;99.90;;;;;;5073010;28;20070;-88
2021/08/02 08:41:58;;;;;;;1.90;1.80;;;22.40;99.90;;;;;;5072422;28;20041;-88
2021/08/02 08:44:27;;;;;;;1.70;1.60;;;22.40;99.90;;;;;;5072739;28;20475;-87
2021/08/02 08:46:55;;;;;;;1.90;1.80;;;22.80;99.90;;;;;;5072345;28;20052;-87
2021/08/02 08:49:22;;;;;;;2.50;2.08;;;22.80;99.90;;;;;;5072835;28;20063;-87
2021/08/02 08:51:49;;;;;;;2.00;1.90;;;22.80;99.90;;;;;;5071765;28;20060;-88
2021/08/02 08:54:16;;;;;;;1.90;1.80;;;22.70;99.90;;;;;;5073525;28;20559;-88
2021/08/02 08:56:43;;;;;;;1.40;1.40;;;22.40;99.90;;;;;;5072087;28;20048;-88
2021/08/02 08:59:13;;;;;;;1.70;1.60;;;22.50;99.90;;;;;;5072552;28;20087;-89
2021/08/02 09:01:40;;;;;;;3.05;1.70;;;22.30;99.90;;;;;;5072421;28;20472;-86
2021/08/02 09:04:08;;;;;;;1.80;1.80;;;21.80;99.90;;;;;;5072663;28;20079;-89
2021/08/02 09:06:48;;;;;;;2.20;2.10;;;21.40;99.90;;;;;;5073517;28;20131;-87
2021/08/02 09:09:34;;;;;;;3.38;2.20;;;21.60;99.90;;;;;;5072619;28;20052;-87
2021/08/02 09:12:13;;;;;;;2.40;2.20;;;21.10;99.90;;;;;;5072222;28;20048;-87
2021/08/02 09:14:54;;;;;;;2.40;2.20;;;20.70;99.90;;;;;;5075467;28;20052;-87
2021/08/02 09:17:32;;;;;;;3.53;2.10;;;20.40;99.90;;;;;;5092744;28;20052;-86
2021/08/02 09:20:01;;;;;;;2.42;2.22;;;20.00;99.90;;;;;;5074669;28;20147;-88
2021/08/02 09:22:30;;;;;;;3.13;2.38;;;20.10;99.90;;;;;;5072073;28;20579;-88
2021/08/02 09:25:06;;;;;;;3.40;2.20;;;20.30;99.90;;;;;;5072262;28;20050;-88
2021/08/02 09:27:33;;;;;;;2.75;2.30;;;21.00;99.90;;;;;;5071900;28;20045;-88
2021/08/02 09:30:19;;;;;;;2.05;1.95;;;21.40;99.90;;;;;;5072451;28;20090;-90
2021/08/02 09:32:51;;;;;;;1.90;1.80;;;21.60;99.90;;;;;;5072884;28;20057;-90
2021/08/02 09:35:28;;;;;;;6.20;2.30;;;21.40;99.90;;;;;;5073400;28;20465;-88
2021/08/02 09:37:57;;;;;;;1.98;1.92;;;20.90;99.90;;;;;;5072359;28;20045;-89
2021/08/02 09:40:24;;;;;;;2.35;2.08;;;20.70;99.90;;;;;;5072323;28;20048;-88
2021/08/02 09:42:58;;;;;;;2.03;1.75;;;20.70;99.90;;;;;;5073068;28;20057;-88
2021/08/02 09:45:49;;;;;;;2.40;1.73;;;21.20;99.90;;;;;;5072198;28;20057;-88
2021/08/02 09:48:17;;;;;;;2.03;1.90;;;21.50;99.90;;;;;;5072064;28;20049;-88
2021/08/02 09:50:46;;;;;;;1.70;1.70;;;21.40;99.90;;;;;;5072115;28;20045;-88
2021/08/02 09:53:20;;;;;;;3.63;2.08;;;21.00;99.90;;;;;;5071772;28;20080;-88
2021/08/02 09:55:48;;;;;;;2.30;2.10;;;20.40;99.90;;;;;;5072348;28;20048;-92
2021/08/02 09:58:18;;;;;;;2.15;2.05;;;19.70;99.90;;;;;;5072049;28;20412;-88
2021/08/02 10:00:46;;;;;;;2.67;2.38;;;19.30;99.90;;;;;;5072189;28;20040;-87
2021/08/02 10:03:16;;;;;;;2.70;2.47;;;19.20;99.90;;;;;;5073566;28;20063;-90
2021/08/02 10:05:43;;;;;;;2.00;1.90;;;19.10;99.90;;;;;;5075745;28;20075;-87
2021/08/02 10:08:30;;;;;;;1.80;1.70;;;19.00;99.90;;;;;;5075901;28;20053;-87
2021/08/02 10:10:57;;;;;;;1.98;1.88;;;18.80;99.90;;;;;;5075767;28;20128;-88
2021/08/02 10:13:33;;;;;;;2.30;2.10;;;18.90;99.90;;;;;;5075464;28;20052;-89
2021/08/02 10:16:04;;;;;;;2.78;1.60;;;18.80;99.90;;;;;;5075324;28;20105;-87
2021/08/02 10:18:32;;;;;;;1.40;1.40;;;18.90;99.90;;;;;;5074884;28;20106;-87
2021/08/02 10:21:11;;;;;;;2.80;2.17;;;18.70;99.90;;;;;;5075598;28;20075;-88
2021/08/02 10:23:39;;;;;;;2.00;1.90;;;18.80;99.90;;;;;;5075263;28;20147;-89
2021/08/02 10:26:29;;;;;;;2.17;1.92;;;19.30;99.90;;;;;;5075301;28;20486;-88
2021/08/02 10:29:03;;;;;;;1.80;1.70;;;19.90;99.90;;;;;;5075333;28;20579;-88
2021/08/02 10:31:45;;;;;;;1.55;1.45;;;20.60;99.90;;;;;;5076094;28;20052;-89
2021/08/02 10:34:17;;;;;;;1.65;1.60;;;21.30;99.90;;;;;;5078751;28;20135;-89
2021/08/02 10:37:05;;;;;;;1.75;1.70;;;21.50;99.90;;;;;;5094971;28;20576;-89
2021/08/02 10:39:35;;;;;;;1.70;1.70;;;21.10;99.90;;;;;;5076734;28;20072;-89
2021/08/02 10:42:10;;;;;;;1.70;1.60;;;20.90;99.90;;;;;;5075045;28;20063;-88
2021/08/02 10:44:59;;;;;;;2.40;2.20;;;20.90;99.90;;;;;;5075272;28;20049;-88
2021/08/02 10:47:42;;;;;;;1.50;1.50;;;20.60;99.90;;;;;;5075204;28;20052;-88
2021/08/02 10:50:10;;;;;;;3.88;1.83;;;20.50;99.90;;;;;;5074753;28;20122;-90
2021/08/02 10:52:38;;;;;;;1.35;1.25;;;21.30;99.90;;;;;;5075113;28;20052;-87
2021/08/02 10:55:15;;;;;;;2.60;1.60;;;23.00;99.90;;;;;;5075126;28;20477;-90
2021/08/02 10:57:43;;;;;;;1.65;1.00;;;24.40;99.90;;;;;;5075189;28;20500;-89
2021/08/02 11:00:21;;;;;;;1.60;1.50;;;27.80;99.90;;;;;;5074813;28;20127;-87
2021/08/02 11:02:53;;;;;;;2.05;1.52;;;28.10;98.40;;;;;;5074911;28;20062;-88
2021/08/02 11:05:28;;;;;;;1.00;0.98;;;27.10;98.40;;;;;;5075188;28;20053;-88
2021/08/02 11:08:05;;;;;;;1.40;1.30;;;26.60;98.80;;;;;;5074912;28;20048;-88
2021/08/02 11:10:33;;;;;;;1.58;1.30;;;26.60;99.20;;;;;;5074654;28;20059;-88
2021/08/02 11:13:26;;;;;;;1.40;1.30;;;26.90;98.70;;;;;;5074355;28;20083;-88
2021/08/02 11:15:54;;;;;;;1.40;1.30;;;25.80;99.80;;;;;;5073720;28;20122;-88
2021/08/02 11:18:25;;;;;;;1.25;1.25;;;25.00;99.90;;;;;;5074321;28;20115;-88
2021/08/02 11:20:54;;;;;;;1.77;1.20;;;24.80;99.90;;;;;;5074148;28;20117;-88
2021/08/02 11:23:32;;;;;;;1.75;1.65;;;25.20;99.90;;;;;;5076040;28;20076;-88
2021/08/02 11:26:09;;;;;;;2.15;1.67;;;24.90;99.90;;;;;;5075640;28;20140;-88
2021/08/02 11:28:44;;;;;;;1.70;1.60;;;24.20;99.90;;;;;;5074831;28;20041;-86
2021/08/02 11:31:13;;;;;;;1.42;1.35;;;23.40;99.90;;;;;;5075652;28;20052;-88
2021/08/02 11:33:41;;;;;;;1.25;1.25;;;22.50;99.90;;;;;;5079110;28;20447;-88
2021/08/02 11:36:16;;;;;;;1.38;1.38;;;21.60;99.90;;;;;;5073987;28;20051;-88
2021/08/02 11:38:44;;;;;;;1.60;1.10;;;21.20;99.90;;;;;;5074145;28;20544;-88
2021/08/02 11:41:28;;;;;;;1.52;1.42;;;22.10;99.90;;;;;;5074497;28;20044;-88
2021/08/02 11:43:58;;;;;;;;;;;23.10;99.90;;;;;;5074418;28;20044;-88
2021/08/02 11:46:25;;;;;;;2.88;1.60;;;23.10;99.90;;;;;;5073814;28;20268;-88
2021/08/02 11:48:52;;;;;;;2.88;1.50;;;22.60;99.90;;;;;;5074228;28;20489;-88
2021/08/02 11:51:19;;;;;;;2.53;1.50;;;21.90;99.90;;;;;;5074292;28;20493;-87
2021/08/02 11:53:46;;;;;;;2.75;1.73;;;21.10;99.90;;;;;;5082638;28;20144;-88
2021/08/02 11:56:12;;;;;;;1.95;1.77;;;20.10;99.90;;;;;;5086866;28;20075;-90
2021/08/02 11:58:43;;;;;;;1.20;1.20;;;19.40;99.90;;;;;;5074332;28;20503;-87
2021/08/02 12:01:12;;;;;;;1.80;1.70;;;18.90;99.90;;;;;;5073791;28;20550;-87
2021/08/02 12:03:44;;;;;;;2.45;2.28;;;18.40;99.90;;;;;;5073612;28;20147;-86
2021/08/02 12:06:16;;;;;;;2.22;2.13;;;18.00;99.90;;;;;;5073362;28;20053;-87
2021/08/02 12:08:51;;;;;;;2.70;1.98;;;17.90;99.90;;;;;;5073338;28;20056;-85
2021/08/02 12:11:18;;;;;;;2.30;2.10;;;17.80;99.90;;;;;;5073013;28;20065;-86
2021/08/02 12:13:47;;;;;;;2.10;2.00;;;17.80;99.90;;;;;;5072902;28;20179;-85
2021/08/02 12:16:28;;;;;;;1.95;1.80;;;17.80;99.90;;;;;;5072898;28;20105;-86
2021/08/02 12:19:06;;;;;;;2.45;2.28;;;17.80;99.90;;;;;;5072888;28;20060;-87
2021/08/02 12:21:34;;;;;;;2.05;1.95;;;18.10;99.90;;;;;;5072788;28;20055;-86
2021/08/02 12:24:10;;;;;;;1.88;1.77;;;18.10;99.90;;;;;;5073139;28;20059;-87
2021/08/02 12:26:49;;;;;;;1.90;1.80;;;18.10;99.90;;;;;;5072189;28;20045;-86
2021/08/02 12:29:29;;;;;;;2.00;1.90;;;18.40;99.90;;;;;;5073893;28;20076;-86
2021/08/02 12:32:01;;;;;;;2.08;1.60;;;18.70;99.90;;;;;;5073697;28;20048;-87
2021/08/02 12:34:29;;;;;;;5.78;2.10;;;18.80;99.90;;;;;;5072664;28;20052;-86
2021/08/02 12:36:57;;;;;;;2.58;2.10;;;18.40;99.90;;;;;;5072751;28;20051;-86
2021/08/02 12:39:27;;;;;;;3.17;2.22;;;18.20;99.90;;;;;;5072810;28;20055;-88
2021/08/02 12:41:54;;;;;;;2.83;2.60;;;17.80;99.90;;;;;;5072567;28;20071;-87
2021/08/02 12:44:25;;;;;;;2.17;2.08;;;17.50;99.90;;;;;;5072362;28;20057;-87
2021/08/02 12:46:51;;;;;;;1.80;1.70;;;17.30;99.90;;;;;;5072903;28;20055;-88
2021/08/02 12:49:18;;;;;;;2.50;2.33;;;17.20;99.90;;;;;;5072874;28;20048;-87
2021/08/02 12:51:45;;;;;;;1.95;1.95;;;17.20;99.90;;;;;;5073585;28;20055;-88
2021/08/02 12:54:12;;;;;;;1.73;1.63;;;17.10;99.90;;;;;;5072653;28;20055;-87
2021/08/02 12:56:38;;;;;;;1.80;1.70;;;17.10;99.90;;;;;;5072336;28;20416;-87
2021/08/02 12:59:05;;;;;;;2.22;2.03;;;17.00;99.90;;;;;;5072603;28;20127;-87